createdAt,value
2023-03-06T00:01:04.029Z,9.50
2023-03-06T00:03:33.843Z,10.20
2023-03-06T00:06:03.057Z,11.00
2023-03-06T00:08:31.936Z,8.60
2023-03-06T00:11:01.000Z,7.70
2023-03-06T00:13:31.391Z,7.20
2023-03-06T00:16:03.738Z,7.90
2023-03-06T00:18:33.030Z,8.30
2023-03-06T00:21:01.841Z,8.50
2023-03-06T00:23:30.969Z,7.30
2023-03-06T00:25:59.796Z,9.10
2023-03-06T00:28:31.188Z,8.40
2023-03-06T00:31:00.146Z,8.50
2023-03-06T00:33:29.088Z,7.60
2023-03-06T00:35:57.849Z,7.90
2023-03-06T00:38:28.818Z,7.80
2023-03-06T00:40:58.198Z,9.00
2023-03-06T00:43:27.010Z,8.60
2023-03-06T00:45:55.897Z,8.50
2023-03-06T00:48:24.752Z,8.50
2023-03-06T00:50:54.147Z,7.10
2023-03-06T00:53:23.079Z,7.10
2023-03-06T00:55:52.616Z,7.90
2023-03-06T00:58:21.605Z,8.30
2023-03-06T01:00:50.849Z,8.10
2023-03-06T01:03:19.592Z,8.30
2023-03-06T01:05:48.613Z,8.20
2023-03-06T01:08:17.489Z,8.40
2023-03-06T01:10:46.306Z,9.30
2023-03-06T01:13:15.306Z,10.50
2023-03-06T01:15:45.349Z,9.90
2023-03-06T01:18:14.157Z,11.50
2023-03-06T01:20:43.366Z,10.60
2023-03-06T01:23:12.216Z,9.80
2023-03-06T01:25:41.034Z,10.00
2023-03-06T01:28:09.893Z,10.10
2023-03-06T01:30:38.862Z,10.10
2023-03-06T01:33:07.749Z,9.50
2023-03-06T01:35:39.659Z,8.90
2023-03-06T01:38:08.949Z,9.30
2023-03-06T01:40:39.305Z,8.40
2023-03-06T01:43:28.264Z,9.20
2023-03-06T01:46:27.107Z,8.20
2023-03-06T01:49:00.288Z,9.20
2023-03-06T01:54:31.263Z,8.50
2023-03-06T01:57:07.398Z,9.60
2023-03-06T01:59:38.796Z,8.60
2023-03-06T02:02:11.049Z,9.10
2023-03-06T02:04:42.597Z,9.00
2023-03-06T02:07:12.182Z,8.90
2023-03-06T02:09:41.073Z,9.10
2023-03-06T02:12:16.659Z,8.60
2023-03-06T02:14:46.616Z,8.70
2023-03-06T02:17:19.102Z,8.50
2023-03-06T02:20:20.534Z,8.50
2023-03-06T02:23:41.504Z,10.80
2023-03-06T02:26:12.046Z,8.90
2023-03-06T02:28:40.911Z,9.40
2023-03-06T02:31:21.322Z,10.80
2023-03-06T02:34:19.625Z,9.90
2023-03-06T02:36:54.221Z,9.00
2023-03-06T02:39:27.086Z,8.90
2023-03-06T02:41:56.066Z,8.40
2023-03-06T02:44:27.338Z,9.30
2023-03-06T02:46:56.129Z,9.40
2023-03-06T02:49:26.524Z,9.40
2023-03-06T02:51:55.550Z,10.50
2023-03-06T02:54:24.230Z,9.70
2023-03-06T02:56:53.009Z,10.30
2023-03-06T02:59:21.747Z,9.70
2023-03-06T03:01:51.088Z,10.60
2023-03-06T03:04:20.010Z,10.00
2023-03-06T03:06:49.386Z,11.20
2023-03-06T03:09:20.026Z,12.10
2023-03-06T03:11:48.904Z,11.80
2023-03-06T03:14:18.038Z,11.90
2023-03-06T03:16:47.553Z,12.90
2023-03-06T03:19:16.327Z,12.30
2023-03-06T03:21:45.326Z,12.00
2023-03-06T03:24:14.360Z,11.30
2023-03-06T03:26:44.051Z,9.50
2023-03-06T03:29:15.897Z,9.80
2023-03-06T03:31:44.704Z,8.40
2023-03-06T03:34:13.593Z,8.80
2023-03-06T03:36:42.633Z,9.80
2023-03-06T03:39:11.691Z,10.50
2023-03-06T03:41:40.918Z,9.90
2023-03-06T03:44:10.888Z,8.80
2023-03-06T03:46:39.796Z,8.60
2023-03-06T03:49:12.465Z,10.10
2023-03-06T03:54:45.038Z,10.40
2023-03-06T03:57:13.931Z,9.50
2023-03-06T03:59:45.417Z,9.40
2023-03-06T04:02:24.017Z,12.30
2023-03-06T04:04:59.123Z,13.00
2023-03-06T04:07:28.558Z,13.10
2023-03-06T04:09:57.933Z,13.30
2023-03-06T04:12:28.105Z,12.80
2023-03-06T04:14:58.378Z,12.10
2023-03-06T04:17:27.835Z,10.40
2023-03-06T04:19:57.038Z,10.10
2023-03-06T04:22:26.625Z,10.10
2023-03-06T04:24:55.931Z,10.40
2023-03-06T04:27:25.112Z,10.90
2023-03-06T04:29:56.560Z,11.40
2023-03-06T04:32:25.632Z,12.60
2023-03-06T04:34:54.510Z,11.10
2023-03-06T04:37:27.969Z,11.00
2023-03-06T04:39:57.838Z,5.90
2023-03-06T04:42:26.640Z,9.10
2023-03-06T04:44:55.572Z,10.50
2023-03-06T04:47:24.345Z,10.90
2023-03-06T04:49:53.109Z,11.50
2023-03-06T04:52:21.949Z,13.10
2023-03-06T04:54:50.727Z,13.40
2023-03-06T04:57:19.631Z,14.50
2023-03-06T04:59:49.843Z,14.60
2023-03-06T05:02:18.923Z,14.10
2023-03-06T05:04:47.846Z,11.40
2023-03-06T05:07:16.710Z,11.30
2023-03-06T05:09:45.516Z,11.80
2023-03-06T05:12:14.352Z,13.30
2023-03-06T05:14:46.233Z,15.00
2023-03-06T05:17:15.893Z,14.90
2023-03-06T05:19:44.814Z,13.40
2023-03-06T05:22:13.623Z,13.80
2023-03-06T05:24:42.555Z,14.60
2023-03-06T05:27:11.297Z,15.90
2023-03-06T05:29:40.218Z,18.00
2023-03-06T05:32:09.357Z,20.40
2023-03-06T05:34:40.391Z,21.10
2023-03-06T05:37:09.689Z,21.60
2023-03-06T05:39:38.580Z,21.50
2023-03-06T05:42:07.790Z,21.40
2023-03-06T05:44:37.180Z,20.20
2023-03-06T05:47:06.202Z,20.40
2023-03-06T05:49:36.323Z,21.90
2023-03-06T05:52:06.836Z,21.30
2023-03-06T05:54:37.398Z,20.00
2023-03-06T05:57:06.493Z,19.20
2023-03-06T05:59:36.291Z,18.10
2023-03-06T06:02:05.845Z,20.30
2023-03-06T06:04:35.347Z,20.50
2023-03-06T06:07:06.243Z,18.50
2023-03-06T06:09:35.053Z,15.70
2023-03-06T06:12:04.439Z,13.60
2023-03-06T06:14:36.332Z,15.40
2023-03-06T06:17:05.651Z,12.90
2023-03-06T06:19:34.430Z,15.30
2023-03-06T06:22:04.083Z,15.00
2023-03-06T06:24:33.243Z,13.60
2023-03-06T06:27:03.835Z,13.40
2023-03-06T06:29:33.838Z,14.80
2023-03-06T06:32:02.912Z,14.70
2023-03-06T06:34:32.138Z,14.40
2023-03-06T06:37:00.931Z,13.70
2023-03-06T06:39:29.898Z,13.70
2023-03-06T06:42:15.439Z,14.70
2023-03-06T06:44:47.812Z,17.10
2023-03-06T06:47:25.640Z,14.80
2023-03-06T06:49:56.465Z,14.30
2023-03-06T06:52:25.488Z,17.10
2023-03-06T06:54:54.681Z,15.70
2023-03-06T06:57:23.403Z,16.20
2023-03-06T06:59:53.908Z,15.80
2023-03-06T07:02:23.576Z,13.20
2023-03-06T07:05:03.817Z,15.20
2023-03-06T07:07:36.672Z,13.60
2023-03-06T07:10:11.771Z,11.70
2023-03-06T07:12:40.745Z,13.80
2023-03-06T07:15:14.073Z,15.50
2023-03-06T07:20:12.861Z,17.40
2023-03-06T07:22:50.931Z,14.80
2023-03-06T07:25:21.362Z,17.30
2023-03-06T07:27:55.083Z,15.90
2023-03-06T07:30:24.834Z,17.30
2023-03-06T07:32:56.544Z,16.40
2023-03-06T07:35:26.307Z,16.30
2023-03-06T07:37:55.486Z,16.60
2023-03-06T07:40:24.893Z,16.70
2023-03-06T07:43:06.109Z,15.50
2023-03-06T07:45:44.361Z,13.80
2023-03-06T07:48:15.063Z,13.30
2023-03-06T07:50:43.941Z,15.30
2023-03-06T07:53:12.675Z,15.50
2023-03-06T07:55:41.843Z,15.50
2023-03-06T07:58:11.865Z,17.10
2023-03-06T08:00:41.000Z,15.60
2023-03-06T08:03:12.710Z,15.70
2023-03-06T08:05:41.704Z,15.00
2023-03-06T08:08:10.760Z,15.40
2023-03-06T08:10:39.594Z,12.80
2023-03-06T08:13:08.394Z,13.80
2023-03-06T08:15:37.248Z,13.40
2023-03-06T08:18:06.087Z,14.10
2023-03-06T08:20:35.044Z,15.50
2023-03-06T08:23:04.020Z,14.20
2023-03-06T08:25:33.029Z,15.00
2023-03-06T08:28:02.131Z,13.00
2023-03-06T08:30:31.174Z,12.10
2023-03-06T08:33:01.615Z,10.40
2023-03-06T08:35:30.708Z,8.80
2023-03-06T08:37:59.723Z,8.10
2023-03-06T08:40:30.606Z,7.20
2023-03-06T08:42:59.522Z,9.10
2023-03-06T08:45:29.419Z,8.90
2023-03-06T08:47:59.023Z,7.90
2023-03-06T08:50:27.995Z,8.90
2023-03-06T08:52:56.936Z,9.00
2023-03-06T08:55:26.167Z,9.70
2023-03-06T08:57:55.059Z,9.50
2023-03-06T09:00:24.180Z,10.00
2023-03-06T09:02:53.188Z,10.00
2023-03-06T09:05:22.518Z,10.20
2023-03-06T09:07:51.803Z,8.00
2023-03-06T09:10:24.420Z,7.40
2023-03-06T09:12:55.358Z,8.70
2023-03-06T09:15:25.102Z,7.30
2023-03-06T09:17:54.636Z,7.80
2023-03-06T09:20:23.614Z,8.30
2023-03-06T09:22:52.633Z,9.20
2023-03-06T09:25:23.594Z,8.30
2023-03-06T09:28:08.612Z,7.40
2023-03-06T09:30:41.623Z,8.60
2023-03-06T09:33:10.704Z,5.70
2023-03-06T09:35:49.456Z,7.70
2023-03-06T09:38:21.110Z,7.50
2023-03-06T09:41:02.341Z,8.10
2023-03-06T09:43:48.481Z,7.00
2023-03-06T09:46:38.141Z,7.80
2023-03-06T09:49:35.566Z,6.90
2023-03-06T09:52:36.764Z,7.00
2023-03-06T09:55:33.464Z,7.70
2023-03-06T09:58:20.955Z,6.90
2023-03-06T10:01:36.879Z,6.70
2023-03-06T10:04:41.914Z,6.50
2023-03-06T10:07:33.692Z,6.40
2023-03-06T10:10:07.708Z,6.00
2023-03-06T10:12:45.092Z,5.40
2023-03-06T10:15:32.626Z,5.90
2023-03-06T10:18:05.862Z,5.70
2023-03-06T10:20:45.242Z,6.20
2023-03-06T10:23:53.780Z,6.80
2023-03-06T10:26:32.943Z,6.30
2023-03-06T10:29:14.197Z,6.00
2023-03-06T10:31:54.342Z,6.40
2023-03-06T10:34:31.072Z,6.70
2023-03-06T10:37:09.347Z,6.50
2023-03-06T10:39:40.056Z,6.20
2023-03-06T10:42:09.697Z,7.60
2023-03-06T10:44:39.137Z,4.90
2023-03-06T10:47:31.712Z,6.80
2023-03-06T10:50:03.895Z,6.50
2023-03-06T10:52:35.590Z,7.10
2023-03-06T10:55:27.919Z,6.80
2023-03-06T10:57:57.539Z,6.80
2023-03-06T11:00:33.886Z,7.00
2023-03-06T11:03:27.508Z,6.50
2023-03-06T11:11:09.577Z,6.60
2023-03-06T11:13:41.217Z,6.60
2023-03-06T11:16:26.966Z,7.30
2023-03-06T11:19:00.837Z,7.90
2023-03-06T11:21:36.024Z,7.00
2023-03-06T11:24:15.999Z,6.70
2023-03-06T11:27:13.727Z,7.80
2023-03-06T11:29:49.813Z,7.20
2023-03-06T11:32:36.781Z,7.40
2023-03-06T11:35:25.372Z,7.20
2023-03-06T11:38:07.252Z,6.70
2023-03-06T11:41:02.262Z,6.60
2023-03-06T11:44:13.344Z,6.30
2023-03-06T11:46:50.383Z,6.20
2023-03-06T11:49:28.511Z,5.90
2023-03-06T11:52:04.934Z,6.30
2023-03-06T11:54:33.941Z,6.90
2023-03-06T11:57:22.333Z,7.90
2023-03-06T12:00:20.273Z,7.50
2023-03-06T12:03:16.746Z,8.10
2023-03-06T12:06:04.372Z,6.70
2023-03-06T12:08:54.463Z,7.80
2023-03-06T12:12:09.472Z,7.80
2023-03-06T12:15:11.032Z,7.00
2023-03-06T12:18:14.300Z,6.70
2023-03-06T12:21:19.432Z,7.00
2023-03-06T12:24:20.536Z,6.40
2023-03-06T12:27:14.408Z,4.70
2023-03-06T12:30:16.514Z,4.80
2023-03-06T12:33:09.474Z,5.40
2023-03-06T12:35:55.433Z,5.50
2023-03-06T12:38:48.713Z,5.20
2023-03-06T12:41:50.678Z,4.70
2023-03-06T12:44:54.405Z,3.30
2023-03-06T12:47:28.141Z,4.10
2023-03-06T12:50:04.375Z,4.80
2023-03-06T12:52:35.426Z,4.60
2023-03-06T12:55:08.504Z,5.30
2023-03-06T13:00:07.031Z,3.50
2023-03-06T13:03:14.608Z,4.80
2023-03-06T13:06:00.871Z,3.90
2023-03-06T13:09:00.345Z,4.30
2023-03-06T13:12:10.933Z,4.60
2023-03-06T13:14:48.769Z,4.90
2023-03-06T13:17:37.830Z,4.30
2023-03-06T13:20:15.733Z,4.80
2023-03-06T13:22:47.530Z,4.20
2023-03-06T13:25:21.054Z,4.30
2023-03-06T13:27:52.636Z,4.50
2023-03-06T13:30:39.532Z,4.80
2023-03-06T13:33:33.118Z,5.00
2023-03-06T13:39:00.139Z,5.50
2023-03-06T13:41:31.684Z,4.50
2023-03-06T13:44:28.601Z,4.20
2023-03-06T13:47:02.204Z,4.00
2023-03-06T13:49:32.301Z,4.00
2023-03-06T13:52:19.635Z,3.50
2023-03-06T13:55:17.333Z,4.00
2023-03-06T13:58:40.636Z,3.50
2023-03-06T14:01:51.955Z,5.70
2023-03-06T14:04:58.717Z,5.40
2023-03-06T14:07:40.274Z,5.40
2023-03-06T14:10:23.624Z,4.40
2023-03-06T14:13:02.497Z,5.70
2023-03-06T14:15:49.819Z,5.50
2023-03-06T14:18:48.338Z,5.20
2023-03-06T14:21:42.659Z,6.30
2023-03-06T14:24:21.060Z,5.20
2023-03-06T14:26:55.006Z,5.50
2023-03-06T14:29:27.886Z,5.40
2023-03-06T14:32:00.249Z,5.20
2023-03-06T14:34:41.348Z,5.10
2023-03-06T14:37:25.522Z,5.00
2023-03-06T14:39:56.323Z,4.90
2023-03-06T14:42:28.986Z,4.40
2023-03-06T14:45:24.017Z,6.10
2023-03-06T14:47:53.802Z,5.40
2023-03-06T14:50:24.328Z,5.20
2023-03-06T14:52:59.624Z,5.60
2023-03-06T14:55:34.087Z,6.00
2023-03-06T14:58:16.761Z,4.90
2023-03-06T15:00:50.406Z,4.70
2023-03-06T15:03:32.803Z,4.50
2023-03-06T15:06:17.741Z,4.10
2023-03-06T15:08:54.794Z,3.50
2023-03-06T15:12:21.353Z,4.40
2023-03-06T15:15:11.934Z,5.00
2023-03-06T15:17:47.561Z,5.70
2023-03-06T15:21:11.175Z,5.10
2023-03-06T15:23:47.349Z,4.90
2023-03-06T15:26:34.881Z,4.90
2023-03-06T15:29:10.908Z,5.00
2023-03-06T15:31:43.856Z,4.80
2023-03-06T15:36:49.627Z,7.10
2023-03-06T15:39:40.063Z,9.50
2023-03-06T15:42:34.621Z,9.90
2023-03-06T15:45:17.826Z,7.40
2023-03-06T15:47:54.411Z,6.40
2023-03-06T15:50:29.177Z,5.40
2023-03-06T15:52:58.841Z,5.80
2023-03-06T15:55:28.275Z,6.10
2023-03-06T15:58:02.352Z,4.80
2023-03-06T16:00:35.347Z,5.30
2023-03-06T16:03:05.085Z,6.70
2023-03-06T16:05:34.245Z,6.60
2023-03-06T16:08:07.013Z,8.70
2023-03-06T16:10:39.609Z,8.90
2023-03-06T16:13:17.146Z,11.70
2023-03-06T16:15:50.296Z,18.60
2023-03-06T16:20:49.995Z,37.70
2023-03-06T16:23:19.019Z,21.90
2023-03-06T16:25:49.659Z,17.00
2023-03-06T16:28:18.617Z,22.10
2023-03-06T16:30:49.302Z,21.60
2023-03-06T16:33:37.041Z,20.60
2023-03-06T16:36:42.581Z,16.50
2023-03-06T16:39:16.075Z,12.80
2023-03-06T16:41:47.502Z,11.90
2023-03-06T16:47:03.637Z,10.70
2023-03-06T16:49:34.901Z,10.40
2023-03-06T16:52:04.879Z,9.10
2023-03-06T16:54:36.063Z,8.40
2023-03-06T16:57:05.243Z,10.80
2023-03-06T16:59:34.426Z,9.50
2023-03-06T17:02:03.470Z,11.50
2023-03-06T17:04:32.397Z,13.00
2023-03-06T17:07:01.578Z,14.80
2023-03-06T17:09:31.933Z,12.30
2023-03-06T17:12:02.959Z,12.60
2023-03-06T17:14:34.284Z,12.70
2023-03-06T17:17:03.158Z,13.20
2023-03-06T17:19:32.568Z,18.00
2023-03-06T17:22:01.653Z,17.30
2023-03-06T17:24:30.391Z,15.50
2023-03-06T17:26:59.680Z,14.00
2023-03-06T17:29:29.165Z,13.40
2023-03-06T17:31:58.367Z,15.70
2023-03-06T17:34:27.502Z,15.60
2023-03-06T17:36:56.885Z,16.10
2023-03-06T17:39:35.646Z,21.30
2023-03-06T17:42:07.552Z,19.60
2023-03-06T17:44:42.043Z,18.20
2023-03-06T17:47:12.022Z,20.80
2023-03-06T17:49:40.893Z,19.70
2023-03-06T17:52:11.526Z,20.30
2023-03-06T17:54:40.653Z,35.00
2023-03-06T17:57:09.454Z,31.00
2023-03-06T17:59:38.378Z,21.60
2023-03-06T18:02:07.346Z,19.60
2023-03-06T18:04:37.023Z,20.90
2023-03-06T18:07:06.024Z,21.10
2023-03-06T18:09:35.332Z,21.00
2023-03-06T18:12:06.157Z,17.40
2023-03-06T18:14:37.280Z,17.40
2023-03-06T18:17:10.401Z,17.60
2023-03-06T18:19:39.159Z,15.60
2023-03-06T18:22:08.083Z,18.30
2023-03-06T18:24:37.275Z,16.60
2023-03-06T18:27:06.124Z,15.20
2023-03-06T18:29:34.866Z,15.30
2023-03-06T18:32:03.854Z,15.90
2023-03-06T18:34:32.805Z,12.40
2023-03-06T18:37:01.524Z,14.30
2023-03-06T18:39:30.564Z,15.40
2023-03-06T18:41:59.463Z,15.30
2023-03-06T18:44:28.573Z,17.40
2023-03-06T18:46:57.346Z,15.20
2023-03-06T18:49:26.191Z,14.30
2023-03-06T18:51:55.065Z,15.20
2023-03-06T18:54:25.535Z,15.20
2023-03-06T18:56:54.360Z,15.20
2023-03-06T18:59:23.220Z,16.50
2023-03-06T19:01:59.124Z,17.80
2023-03-06T19:04:28.407Z,19.40
2023-03-06T19:06:57.391Z,18.30
2023-03-06T19:09:26.397Z,17.40
2023-03-06T19:11:57.612Z,17.10
2023-03-06T19:14:28.799Z,18.10
2023-03-06T19:16:57.732Z,18.70
2023-03-06T19:19:27.247Z,18.20
2023-03-06T19:22:00.618Z,21.50
2023-03-06T19:24:29.463Z,26.60
2023-03-06T19:26:58.400Z,30.10
2023-03-06T19:29:27.289Z,24.60
2023-03-06T19:31:57.406Z,21.30
2023-03-06T19:34:26.331Z,27.80
2023-03-06T19:36:55.212Z,25.00
2023-03-06T19:39:24.527Z,21.40
2023-03-06T19:41:53.474Z,19.60
2023-03-06T19:44:23.604Z,18.90
2023-03-06T19:46:52.423Z,27.20
2023-03-06T19:49:22.415Z,20.90
2023-03-06T19:51:51.506Z,21.40
2023-03-06T19:54:23.570Z,21.00
2023-03-06T19:56:54.053Z,21.40
2023-03-06T19:59:23.426Z,20.50
2023-03-06T20:01:54.293Z,20.50
2023-03-06T20:04:24.192Z,20.00
2023-03-06T20:06:54.392Z,19.80
2023-03-06T20:12:46.002Z,20.80
2023-03-06T20:15:20.860Z,19.20
2023-03-06T20:17:50.763Z,18.90
2023-03-06T20:20:22.620Z,20.70
2023-03-06T20:22:51.402Z,21.00
2023-03-06T20:25:21.138Z,21.20
2023-03-06T20:27:50.063Z,20.60
2023-03-06T20:30:19.070Z,19.50
2023-03-06T20:32:48.205Z,20.70
2023-03-06T20:35:18.106Z,20.50
2023-03-06T20:37:47.038Z,20.40
2023-03-06T20:40:16.283Z,19.50
2023-03-06T20:42:45.329Z,19.60
2023-03-06T20:45:16.046Z,19.20
2023-03-06T20:47:47.490Z,18.40
2023-03-06T20:50:17.101Z,18.80
2023-03-06T20:52:46.102Z,17.90
2023-03-06T20:55:15.036Z,19.40
2023-03-06T20:57:43.831Z,18.60
2023-03-06T21:00:13.821Z,19.80
2023-03-06T21:02:42.922Z,21.70
2023-03-06T21:05:12.088Z,21.70
2023-03-06T21:07:41.106Z,21.40
2023-03-06T21:10:10.496Z,20.80
2023-03-06T21:12:39.338Z,20.10
2023-03-06T21:15:08.915Z,19.40
2023-03-06T21:17:37.889Z,19.70
2023-03-06T21:20:08.013Z,17.70
2023-03-06T21:22:36.946Z,18.90
2023-03-06T21:25:06.101Z,18.50
2023-03-06T21:27:34.924Z,16.90
2023-03-06T21:30:04.190Z,17.50
2023-03-06T21:32:33.324Z,18.20
2023-03-06T21:35:02.461Z,17.40
2023-03-06T21:37:31.349Z,16.60
2023-03-06T21:40:01.916Z,17.60
2023-03-06T21:42:30.707Z,21.90
2023-03-06T21:45:00.134Z,25.40
2023-03-06T21:47:28.959Z,20.20
2023-03-06T21:50:01.559Z,24.30
2023-03-06T21:52:30.745Z,21.00
2023-03-06T21:54:59.596Z,25.10
2023-03-06T21:57:28.464Z,21.30
2023-03-06T21:59:57.240Z,21.60
2023-03-06T22:02:26.078Z,26.00
2023-03-06T22:04:55.499Z,35.50
2023-03-06T22:07:24.647Z,37.70
2023-03-06T22:09:54.448Z,34.60
2023-03-06T22:12:23.639Z,31.10
2023-03-06T22:14:52.682Z,30.90
2023-03-06T22:17:21.506Z,29.40
2023-03-06T22:19:50.219Z,28.00
2023-03-06T22:22:19.594Z,29.10
2023-03-06T22:24:48.702Z,27.60
2023-03-06T22:27:17.597Z,26.20
2023-03-06T22:29:46.741Z,27.20
2023-03-06T22:32:15.764Z,26.50
2023-03-06T22:34:44.755Z,29.20
2023-03-06T22:37:13.659Z,26.90
2023-03-06T22:39:42.517Z,27.60
2023-03-06T22:42:11.468Z,27.70
2023-03-06T22:44:40.347Z,27.40
2023-03-06T22:47:09.161Z,25.20
2023-03-06T22:49:38.741Z,26.00
2023-03-06T22:52:07.758Z,27.70
2023-03-06T22:54:36.664Z,26.70
2023-03-06T22:57:05.511Z,24.20
2023-03-06T22:59:34.385Z,23.80
2023-03-06T23:02:03.931Z,22.80
2023-03-06T23:04:32.696Z,20.90
2023-03-06T23:07:01.506Z,19.80
2023-03-06T23:09:31.830Z,19.20
2023-03-06T23:12:19.684Z,16.10
2023-03-06T23:15:08.389Z,18.20
2023-03-06T23:17:55.870Z,15.90
2023-03-06T23:20:44.125Z,17.20
2023-03-06T23:23:31.337Z,15.70
2023-03-06T23:26:00.754Z,15.80
2023-03-06T23:28:29.745Z,15.40
2023-03-06T23:30:58.757Z,14.60
2023-03-06T23:33:27.557Z,15.20
2023-03-06T23:35:56.395Z,15.70
2023-03-06T23:38:25.309Z,15.40
2023-03-06T23:40:54.231Z,14.90
2023-03-06T23:43:23.036Z,14.70
2023-03-06T23:45:56.278Z,14.40
2023-03-06T23:48:27.040Z,14.30
2023-03-06T23:50:56.965Z,15.30
2023-03-06T23:53:26.091Z,15.70
2023-03-06T23:55:54.928Z,16.50
2023-03-06T23:58:23.768Z,18.60
